Time;durP1;ratioP1;P1;durP2;ratioP2;P2;SDS_P1;SDS_P2;PMS_P1;PMS_P2;Temp;Humidity;BMP_temperature;BMP_pressure;BME280_temperature;BME280_humidity;BME280_pressure;Samples;Min_cycle;Max_cycle;Signal;HPM_P1;HPM_P2
2022/02/01 00:01:41;;;;;;;2.65;1.20;;;;;;;5.79;100.00;100749.69;5015395;28;20052;-72
2022/02/01 00:05:14;;;;;;;4.22;1.17;;;;;;;5.76;100.00;100745.41;5014267;28;20096;-72
2022/02/01 00:13:38;;;;;;;6.50;1.13;;;;;;;5.75;100.00;100751.66;5015445;28;20052;-72
2022/02/01 00:16:46;;;;;;;4.90;0.90;;;;;;;5.70;100.00;100740.53;5002328;28;20099;-70
2022/02/01 00:19:52;;;;;;;1.10;0.82;;;;;;;5.66;100.00;100740.84;5014609;28;20048;-72
2022/02/01 00:33:17;;;;;;;2.22;0.93;;;;;;;5.62;100.00;100764.00;5014984;28;20095;-71
2022/02/01 00:38:15;;;;;;;5.70;1.20;;;;;;;5.63;100.00;100780.75;5014763;28;20568;-72
2022/02/01 00:41:04;;;;;;;4.97;1.52;;;;;;;5.63;100.00;100791.31;5013552;28;20529;-71
2022/02/01 00:43:49;;;;;;;3.17;1.20;;;;;;;5.62;100.00;100801.03;5013910;28;20053;-71
2022/02/01 00:46:34;;;;;;;5.82;1.20;;;;;;;5.59;100.00;100806.53;5013241;28;20048;-71
2022/02/01 00:49:18;;;;;;;2.08;1.33;;;;;;;5.50;100.00;100806.25;5013474;28;20493;-72
2022/02/01 00:52:03;;;;;;;4.90;1.23;;;;;;;5.53;100.00;100816.66;5014149;28;20085;-71
2022/02/01 00:54:47;;;;;;;5.85;1.58;;;;;;;5.51;100.00;100824.69;5013646;28;20060;-71
2022/02/01 00:57:31;;;;;;;1.48;1.05;;;;;;;5.55;100.00;100841.22;5013103;28;20143;-72
2022/02/01 01:00:15;;;;;;;7.53;1.52;;;;;;;5.59;100.00;100843.56;5013003;28;20053;-71
2022/02/01 01:02:59;;;;;;;5.88;1.10;;;;;;;5.66;100.00;100846.66;5014258;28;20551;-71
2022/02/01 01:05:43;;;;;;;4.82;1.20;;;;;;;5.65;100.00;100832.56;5012969;28;20064;-70
2022/02/01 01:08:27;;;;;;;5.15;1.25;;;;;;;5.63;100.00;100831.81;5014155;28;20052;-71
2022/02/01 01:11:12;;;;;;;6.30;1.52;;;;;;;5.63;100.00;100839.75;4999119;28;20056;-71
2022/02/01 01:44:10;;;;;;;6.95;1.58;;;;;;;5.64;99.01;100878.47;5013519;28;20056;-71
2022/02/01 01:55:55;;;;;;;6.80;2.08;;;;;;;5.55;100.00;100899.41;5012587;28;20176;-71
2022/02/01 01:58:39;;;;;;;5.80;1.38;;;;;;;5.59;99.26;100906.16;5011925;28;20168;-71
2022/02/01 02:01:23;;;;;;;;;;;;;;;5.58;99.94;100894.75;5013394;28;20091;-71
2022/02/01 02:04:08;;;;;;;9.82;2.20;;;;;;;5.52;100.00;100883.72;5012396;28;19963;-70
2022/02/01 02:06:52;;;;;;;11.35;1.95;;;;;;;5.52;100.00;100895.13;5012080;28;20053;-71
2022/02/01 02:09:36;;;;;;;4.65;1.98;;;;;;;5.50;100.00;100902.31;5012966;28;20080;-71
2022/02/01 02:12:39;;;;;;;;;;;;;;;5.47;100.00;100915.75;5012553;28;20604;-71
2022/02/01 02:15:31;;;;;;;7.00;2.20;;;;;;;5.49;100.00;100927.06;5013458;28;20412;-71
2022/02/01 02:18:18;;;;;;;7.03;2.22;;;;;;;5.46;100.00;100935.19;5012072;28;20045;-71
2022/02/01 02:21:05;;;;;;;9.70;1.80;;;;;;;5.45;100.00;100940.59;5012900;28;20103;-71
2022/02/01 02:23:48;;;;;;;6.28;2.20;;;;;;;5.39;100.00;100931.25;5012206;28;20049;-71
2022/02/01 02:26:33;;;;;;;8.95;2.00;;;;;;;5.35;100.00;100924.44;5013212;28;20508;-71
2022/02/01 02:29:18;;;;;;;13.95;3.30;;;;;;;5.26;100.00;100925.03;5013460;28;20072;-72
2022/02/01 02:32:04;;;;;;;10.45;2.40;;;;;;;5.24;100.00;100932.19;5011971;28;20169;-70
2022/02/01 02:34:48;;;;;;;15.57;2.03;;;;;;;5.28;100.00;100932.84;5012055;28;20616;-71
2022/02/01 02:37:32;;;;;;;7.45;2.17;;;;;;;5.24;100.00;100945.41;5011726;28;20131;-71
2022/02/01 02:40:33;;;;;;;7.90;2.20;;;;;;;5.23;100.00;100956.91;5012658;28;20048;-71
2022/02/01 02:46:26;;;;;;;6.90;2.50;;;;;;;5.22;99.45;100955.22;5012665;28;20080;-71
2022/02/01 02:49:13;;;;;;;8.18;2.30;;;;;;;5.20;98.20;100949.19;5012159;28;20151;-71
2022/02/01 02:51:57;;;;;;;13.95;2.63;;;;;;;5.17;98.75;100941.44;5011648;28;20382;-71
2022/02/01 02:54:42;;;;;;;9.50;2.47;;;;;;;5.06;99.59;100943.91;5012803;28;20405;-71
2022/02/01 02:57:26;;;;;;;8.65;2.97;;;;;;;5.07;99.04;100948.25;5011574;28;20548;-71
2022/02/01 03:00:11;;;;;;;17.05;2.20;;;;;;;5.12;97.10;100948.78;5011701;28;20096;-71
2022/02/01 03:02:55;;;;;;;11.40;2.15;;;;;;;5.12;96.60;100932.94;5011725;28;20386;-71
2022/02/01 03:05:39;;;;;;;12.68;2.55;;;;;;;5.08;97.18;100946.44;5011537;28;20413;-71
2022/02/01 03:08:24;;;;;;;15.35;2.63;;;;;;;5.10;96.31;100939.25;5012805;28;20140;-71
2022/02/01 03:11:13;;;;;;;11.55;2.60;;;;;;;5.09;96.49;100943.69;5014693;28;20104;-71
2022/02/01 03:14:00;;;;;;;10.77;2.42;;;;;;;5.03;96.61;100949.34;5016611;28;20053;-71
2022/02/01 03:19:49;;;;;;;10.68;2.65;;;;;;;5.02;94.98;100965.31;5016434;28;20355;-71
2022/02/01 03:22:33;;;;;;;9.85;2.67;;;;;;;5.02;94.20;100995.22;5025436;28;20501;-71
2022/02/01 03:25:17;;;;;;;7.82;2.65;;;;;;;4.98;93.68;100985.78;5017225;28;20053;-72
2022/02/01 03:28:02;;;;;;;12.23;2.88;;;;;;;4.97;92.25;100988.50;5015803;28;20100;-72
2022/02/01 03:30:45;;;;;;;14.57;2.63;;;;;;;4.98;91.31;100967.28;5016589;28;20107;-71
2022/02/01 03:33:29;;;;;;;;;;;;;;;4.98;91.20;100969.06;5017071;28;20485;-72
2022/02/01 03:36:13;;;;;;;12.75;2.20;;;;;;;4.91;91.95;100991.53;5014776;28;19924;-71
2022/02/01 03:39:01;;;;;;;12.73;2.90;;;;;;;4.92;89.83;100989.72;5014951;28;20052;-71
2022/02/01 03:41:45;;;;;;;12.50;2.75;;;;;;;4.83;89.68;100993.78;5014865;28;20053;-71
2022/02/01 03:44:31;;;;;;;16.58;2.25;;;;;;;4.83;89.56;100985.84;5015630;28;20053;-71
2022/02/01 03:47:15;;;;;;;10.82;2.65;;;;;;;4.77;89.89;100994.13;5014815;28;20084;-71
2022/02/01 03:50:01;;;;;;;;;;;;;;;4.77;89.00;100999.41;5015117;28;20467;-69
2022/02/01 03:52:45;;;;;;;12.60;2.38;;;;;;;4.76;87.53;101000.34;5015540;28;19924;-71
2022/02/01 03:55:29;;;;;;;8.13;2.00;;;;;;;4.75;87.52;101006.56;5001022;28;20064;-71
2022/02/01 03:58:13;;;;;;;14.32;2.97;;;;;;;4.73;88.42;101023.44;5015677;28;20053;-70
2022/02/01 04:00:57;;;;;;;;;;;;;;;4.67;89.67;101029.09;5014460;28;20184;-71
2022/02/01 04:03:41;;;;;;;15.43;2.85;;;;;;;4.60;90.50;101023.34;5015791;28;20372;-71
2022/02/01 04:06:25;;;;;;;12.23;3.38;;;;;;;4.62;86.70;101015.28;5015469;28;20044;-71
2022/02/01 04:09:09;;;;;;;13.55;2.38;;;;;;;4.69;85.56;101024.56;5015400;28;20052;-71
2022/02/01 04:11:55;;;;;;;11.88;2.15;;;;;;;4.65;88.88;101028.31;5014007;28;20053;-71
2022/02/01 04:14:39;;;;;;;14.80;2.40;;;;;;;4.69;86.20;101041.25;5014350;28;20055;-69
2022/02/01 04:17:23;;;;;;;13.02;2.85;;;;;;;4.71;86.51;101046.47;5029742;23;20057;-70
2022/02/01 04:20:07;;;;;;;12.73;2.60;;;;;;;4.75;86.42;101058.53;5013443;28;20528;-70
2022/02/01 04:22:51;;;;;;;14.48;2.00;;;;;;;4.76;86.59;101060.28;5013825;28;20441;-70
2022/02/01 04:25:35;;;;;;;12.07;2.65;;;;;;;4.74;87.93;101063.00;5015020;28;20493;-70
2022/02/01 04:28:19;;;;;;;13.00;3.20;;;;;;;4.69;89.27;101062.38;4995315;28;20053;-70
2022/02/01 04:31:03;;;;;;;12.45;2.10;;;;;;;4.67;89.43;101050.22;4980508;28;20050;-70
2022/02/01 04:33:47;;;;;;;14.95;2.63;;;;;;;4.60;90.03;101054.16;4994319;28;20046;-70
2022/02/01 04:36:31;;;;;;;9.30;2.25;;;;;;;4.59;89.91;101057.75;4993985;28;20493;-70
2022/02/01 04:39:16;;;;;;;15.48;2.40;;;;;;;4.57;91.11;101038.50;4994203;28;20053;-70
2022/02/01 04:42:00;;;;;;;13.20;2.70;;;;;;;4.55;91.10;101045.63;4993884;28;20049;-70
2022/02/01 04:44:44;;;;;;;15.02;3.22;;;;;;;4.50;92.08;101047.69;4995061;28;20060;-70
2022/02/01 04:47:31;;;;;;;12.35;2.33;;;;;;;4.53;92.22;101036.94;4993722;28;20065;-70
2022/02/01 04:50:21;;;;;;;10.30;2.65;;;;;;;4.49;92.59;101043.34;4993905;28;20413;-70
2022/02/01 04:53:05;;;;;;;6.78;2.28;;;;;;;4.50;93.30;101063.53;4980151;28;20529;-70
2022/02/01 04:55:55;;;;;;;11.70;2.17;;;;;;;4.48;93.61;101070.69;4993553;28;20054;-70
2022/02/01 04:58:39;;;;;;;11.02;3.30;;;;;;;4.46;92.74;101078.69;4993872;28;20092;-70
2022/02/01 05:01:33;;;;;;;13.50;3.03;;;;;;;4.56;90.63;101069.31;4995029;28;20133;-70
2022/02/01 05:04:20;;;;;;;14.27;3.47;;;;;;;4.53;91.81;101068.63;4981361;28;20049;-70
2022/02/01 05:07:04;;;;;;;10.90;2.10;;;;;;;4.47;92.46;101061.09;4993499;28;20049;-70
2022/02/01 05:09:48;;;;;;;;;;;;;;;4.44;92.36;101075.28;4993790;28;20056;-70
2022/02/01 05:12:36;;;;;;;13.35;2.92;;;;;;;4.33;93.62;101066.25;4994391;28;20297;-70
2022/02/01 05:15:20;;;;;;;12.60;2.28;;;;;;;4.34;93.42;101067.97;4994491;28;20411;-70
2022/02/01 05:18:04;;;;;;;10.48;2.75;;;;;;;4.34;94.18;101089.09;4979275;28;20188;-69
2022/02/01 05:20:57;;;;;;;5.75;1.60;;;;;;;4.29;96.58;101096.41;4993293;28;20586;-70
2022/02/01 05:23:42;;;;;;;10.15;2.17;;;;;;;4.28;94.18;101105.28;4980479;28;20100;-70
2022/02/01 05:26:27;;;;;;;12.63;2.90;;;;;;;4.28;93.58;101106.09;4993161;28;20053;-70
2022/02/01 05:29:11;;;;;;;10.60;2.25;;;;;;;4.23;92.73;101102.03;4993174;28;20084;-70
2022/02/01 05:31:58;;;;;;;;;;;;;;;4.17;94.52;101102.38;4993587;28;20122;-70
2022/02/01 05:34:42;;;;;;;11.07;3.10;;;;;;;4.09;94.54;101094.03;4993172;28;19971;-70
2022/02/01 05:37:26;;;;;;;9.50;2.75;;;;;;;4.09;94.14;101112.50;4979102;28;20057;-70
2022/02/01 05:40:11;;;;;;;19.25;2.88;;;;;;;4.13;93.03;101116.66;4993827;28;20069;-70
2022/02/01 05:43:09;;;;;;;9.75;2.70;;;;;;;4.16;91.25;101116.50;4993010;28;20077;-70
2022/02/01 05:45:56;;;;;;;12.63;2.60;;;;;;;4.25;90.02;101121.28;4993272;28;20049;-70
2022/02/01 05:48:40;;;;;;;12.15;2.63;;;;;;;4.27;88.61;101124.69;4992897;28;20112;-70
2022/02/01 05:51:24;;;;;;;10.50;2.25;;;;;;;4.21;89.19;101120.59;4993756;28;20053;-70
2022/02/01 05:54:08;;;;;;;10.68;1.95;;;;;;;4.24;88.34;101098.44;4993631;28;20414;-70
2022/02/01 05:56:52;;;;;;;13.13;2.17;;;;;;;4.20;89.44;101091.66;4993947;28;20099;-69
2022/02/01 05:59:37;;;;;;;10.13;2.05;;;;;;;4.21;90.40;101098.63;4993552;28;20422;-70
2022/02/01 06:02:21;;;;;;;5.63;1.77;;;;;;;4.21;91.15;101098.63;4992728;28;20053;-70
2022/02/01 06:05:06;;;;;;;10.18;1.80;;;;;;;4.19;91.68;101105.78;4992378;28;20048;-70
2022/02/01 06:07:50;;;;;;;10.60;3.28;;;;;;;4.22;91.55;101118.78;4992562;28;20084;-70
2022/02/01 06:10:34;;;;;;;11.13;1.88;;;;;;;4.22;91.57;101121.44;4993878;28;20135;-70
2022/02/01 06:13:18;;;;;;;5.78;1.90;;;;;;;4.13;92.11;101116.66;4992563;28;20200;-70
2022/02/01 06:16:05;;;;;;;10.48;2.55;;;;;;;4.15;91.53;101114.81;4978594;28;20116;-70
2022/02/01 06:18:49;;;;;;;11.63;1.90;;;;;;;4.24;90.62;101109.00;4993518;28;20099;-70
2022/02/01 06:21:33;;;;;;;;;;;;;;;4.14;91.82;101123.63;4992887;28;20049;-69
2022/02/01 06:24:19;;;;;;;6.47;1.98;;;;;;;4.04;93.75;101127.75;4992486;28;19924;-70
2022/02/01 06:27:03;;;;;;;13.02;1.83;;;;;;;4.02;93.28;101119.03;4992395;28;20105;-70
2022/02/01 06:29:47;;;;;;;9.05;2.17;;;;;;;4.05;92.28;101135.53;4993648;28;20181;-69
2022/02/01 06:32:35;;;;;;;8.70;2.00;;;;;;;4.13;92.12;101140.41;4992029;28;20060;-70
2022/02/01 06:35:20;;;;;;;6.70;1.50;;;;;;;4.11;92.13;101139.66;4978861;28;20054;-70
2022/02/01 06:38:04;;;;;;;8.43;2.10;;;;;;;4.02;92.11;101150.69;4978516;28;20513;-69
2022/02/01 06:40:49;;;;;;;7.88;1.77;;;;;;;4.10;91.86;101159.06;4992079;28;20465;-70
2022/02/01 06:43:32;;;;;;;6.28;2.03;;;;;;;4.12;91.92;101181.78;4994283;28;20120;-70
2022/02/01 06:46:16;;;;;;;;;;;;;;;4.16;92.43;101185.13;4996641;28;20134;-70
2022/02/01 06:49:01;;;;;;;7.38;1.85;;;;;;;4.12;93.51;101183.56;4996005;28;20372;-70
2022/02/01 06:51:45;;;;;;;9.05;2.08;;;;;;;4.05;94.57;101190.13;4997068;28;20045;-70
2022/02/01 06:54:29;;;;;;;9.73;1.67;;;;;;;4.02;95.43;101187.63;4982337;28;20061;-70
2022/02/01 06:57:13;;;;;;;6.03;1.85;;;;;;;4.05;95.54;101182.22;4995773;28;20061;-70
2022/02/01 06:59:57;;;;;;;10.20;1.90;;;;;;;4.03;95.57;101189.31;4982185;28;20073;-70
2022/02/01 07:02:41;;;;;;;8.18;2.15;;;;;;;3.96;96.90;101186.16;4995839;28;20398;-69
2022/02/01 07:05:25;;;;;;;6.60;1.40;;;;;;;3.93;98.07;101188.09;4995959;28;20053;-70
2022/02/01 07:08:09;;;;;;;;;;;;;;;3.93;98.70;101204.78;4997117;28;20118;-70
2022/02/01 07:10:53;;;;;;;10.87;2.37;;;;;;;3.94;98.90;101195.94;4996619;28;19972;-70
2022/02/01 07:13:37;;;;;;;;;;;;;;;3.93;99.82;101193.38;4997292;28;20515;-70
2022/02/01 07:16:22;;;;;;;5.47;1.45;;;;;;;3.97;99.82;101185.22;4995486;28;19972;-70
2022/02/01 07:19:06;;;;;;;9.82;2.30;;;;;;;3.93;100.00;101177.56;4996987;28;20382;-70
2022/02/01 07:21:49;;;;;;;8.77;2.58;;;;;;;4.00;100.00;101173.66;4996633;28;20108;-70
2022/02/01 07:24:37;;;;;;;;;;;;;;;4.05;100.00;101169.00;4997024;28;20051;-70
2022/02/01 07:27:37;;;;;;;7.30;2.40;;;;;;;4.06;100.00;101147.81;4996244;28;19964;-70
2022/02/01 07:30:27;;;;;;;14.63;2.53;;;;;;;4.06;100.00;101144.34;4996463;28;20097;-70
2022/02/01 07:33:11;;;;;;;11.23;2.10;;;;;;;4.07;99.89;101148.66;4996729;28;20086;-70
2022/02/01 07:35:56;;;;;;;10.65;2.40;;;;;;;4.04;100.00;101141.75;4995396;28;20045;-70
2022/02/01 07:38:40;;;;;;;9.77;3.03;;;;;;;4.11;100.00;101134.38;4995389;28;20510;-70
2022/02/01 07:41:23;;;;;;;;;;;;;;;4.19;99.42;101146.22;4996546;28;20084;-69
2022/02/01 07:44:07;;;;;;;13.83;2.47;;;;;;;4.15;100.00;101130.66;4995043;28;19935;-70
2022/02/01 07:46:52;;;;;;;8.73;2.63;;;;;;;4.14;100.00;101136.81;4996163;28;20048;-69
2022/02/01 07:49:36;;;;;;;14.20;2.63;;;;;;;4.14;100.00;101137.69;4995924;28;20096;-70
2022/02/01 07:52:20;;;;;;;;;;;;;;;4.23;99.60;101141.59;4995135;28;20049;-70
2022/02/01 07:55:05;;;;;;;11.47;2.73;;;;;;;4.17;100.00;101157.78;4994176;28;20345;-70
2022/02/01 07:57:49;;;;;;;13.85;2.95;;;;;;;4.10;100.00;101154.63;4995043;28;20697;-70
2022/02/01 08:00:33;;;;;;;;;;;;;;;4.06;100.00;101165.44;4981582;28;20085;-70
2022/02/01 08:03:17;;;;;;;14.07;3.20;;;;;;;4.00;100.00;101156.06;4980941;28;19920;-70
2022/02/01 08:06:01;;;;;;;;;;;;;;;4.06;100.00;101147.81;4994921;28;20057;-70
2022/02/01 08:08:45;;;;;;;9.35;2.55;;;;;;;4.16;100.00;101153.47;4980981;28;19944;-70
2022/02/01 08:11:29;;;;;;;12.00;2.70;;;;;;;4.25;100.00;101152.97;4995472;28;20049;-69
2022/02/01 08:17:25;;;;;;;10.50;2.90;;;;;;;4.28;100.00;101160.72;4995407;28;20061;-71
2022/02/01 08:20:12;;;;;;;14.57;3.58;;;;;;;4.34;100.00;101163.84;4994755;28;20056;-70
2022/02/01 08:25:40;;;;;;;6.82;2.75;;;;;;;4.36;100.00;101171.69;4994517;28;20119;-70
2022/02/01 08:28:25;;;;;;;18.42;2.97;;;;;;;4.33;100.00;101166.56;4980709;28;20053;-70
2022/02/01 08:31:09;;;;;;;11.23;2.90;;;;;;;4.17;100.00;101171.00;4995075;28;20045;-70
2022/02/01 08:33:53;;;;;;;10.80;3.17;;;;;;;4.06;100.00;101168.06;4994347;28;20097;-71
2022/02/01 08:36:37;;;;;;;14.82;3.70;;;;;;;4.00;100.00;101173.66;4995130;28;20053;-71
2022/02/01 08:39:21;;;;;;;8.00;2.92;;;;;;;4.00;100.00;101169.25;4995055;28;20053;-70
2022/02/01 08:42:05;;;;;;;10.15;2.70;;;;;;;4.05;100.00;101171.66;4995428;28;20045;-70
2022/02/01 08:44:49;;;;;;;12.25;2.38;;;;;;;4.15;100.00;101178.97;4995099;28;20057;-70
2022/02/01 08:47:33;;;;;;;12.18;2.80;;;;;;;3.99;100.00;101166.69;4994802;28;20517;-70
2022/02/01 08:50:20;;;;;;;;;;;;;;;4.00;100.00;101168.38;4995417;28;20104;-71
2022/02/01 08:53:24;;;;;;;13.57;4.10;;;;;;;4.03;100.00;101162.94;4993852;28;19941;-71
2022/02/01 08:57:20;;;;;;;8.98;2.80;;;;;;;4.12;100.00;101178.28;4994813;28;20180;-70
2022/02/01 08:59:12;;;;;;;15.32;3.53;;;;;;;4.16;100.00;101174.56;4993887;28;20048;-70
2022/02/01 09:01:56;;;;;;;11.13;2.92;;;;;;;4.05;100.00;101171.66;4994759;28;20064;-71
2022/02/01 09:04:40;;;;;;;20.48;3.20;;;;;;;4.03;100.00;101168.22;4995228;28;20061;-71
2022/02/01 09:07:24;;;;;;;11.13;2.92;;;;;;;4.03;100.00;101173.50;4979770;28;20092;-71
2022/02/01 09:10:09;;;;;;;11.57;3.10;;;;;;;4.05;100.00;101161.94;4994571;28;20165;-70
2022/02/01 09:12:52;;;;;;;16.00;2.90;;;;;;;4.09;100.00;101162.63;4994318;28;20064;-70
2022/02/01 09:15:36;;;;;;;11.77;2.83;;;;;;;4.19;100.00;101171.75;4979984;28;20049;-70
2022/02/01 09:18:20;;;;;;;14.35;3.22;;;;;;;4.19;100.00;101177.03;4993482;28;20049;-70
2022/02/01 09:21:04;;;;;;;12.45;3.28;;;;;;;4.09;100.00;101174.03;4979435;28;20122;-71
2022/02/01 09:23:48;;;;;;;12.35;3.45;;;;;;;4.09;100.00;101178.47;4994389;28;20057;-70
2022/02/01 09:26:32;;;;;;;9.13;2.80;;;;;;;4.11;100.00;101176.59;4993205;28;20069;-71
2022/02/01 09:29:19;;;;;;;8.52;3.33;;;;;;;4.13;100.00;101170.28;4993999;28;20497;-70
2022/02/01 09:32:03;;;;;;;12.10;2.60;;;;;;;4.14;100.00;101165.84;4993145;28;20045;-70
2022/02/01 09:34:47;;;;;;;13.88;3.30;;;;;;;4.15;100.00;101163.16;4993929;28;20069;-70
2022/02/01 09:37:31;;;;;;;12.18;2.70;;;;;;;4.14;100.00;101150.03;4994130;28;20061;-70
2022/02/01 09:40:15;;;;;;;11.30;3.28;;;;;;;4.12;100.00;101162.44;4993782;28;20461;-71
2022/02/01 09:42:59;;;;;;;;;;;;;;;4.16;100.00;101154.28;4979940;28;20379;-70
2022/02/01 09:45:43;;;;;;;8.02;2.88;;;;;;;4.18;100.00;101157.69;4992681;28;19921;-70
2022/02/01 09:48:28;;;;;;;10.82;2.33;;;;;;;4.27;100.00;101167.75;4979513;28;20049;-70
2022/02/01 09:51:12;;;;;;;14.38;2.85;;;;;;;4.26;100.00;101162.59;4994062;28;20061;-70
2022/02/01 09:53:56;;;;;;;10.35;2.70;;;;;;;4.21;100.00;101162.81;4992795;28;20133;-70
2022/02/01 09:56:40;;;;;;;11.80;3.45;;;;;;;4.28;100.00;101165.97;4993606;28;20120;-71
2022/02/01 09:59:33;;;;;;;10.50;2.60;;;;;;;4.32;100.00;101164.88;4992736;28;20052;-70
2022/02/01 10:02:17;;;;;;;9.38;2.70;;;;;;;4.28;100.00;101158.06;4992753;28;20399;-70
2022/02/01 10:05:06;;;;;;;7.55;2.53;;;;;;;4.33;100.00;101166.56;4992455;28;20425;-70
2022/02/01 10:07:55;;;;;;;11.73;2.78;;;;;;;4.25;100.00;101174.06;4992370;28;20196;-70
2022/02/01 10:10:40;;;;;;;8.13;2.28;;;;;;;4.29;100.00;101154.50;4993420;28;20053;-70
2022/02/01 10:13:23;;;;;;;;;;;;;;;4.37;99.50;101155.75;4979047;28;20130;-70
2022/02/01 10:16:27;;;;;;;12.03;2.80;;;;;;;4.36;98.21;101155.88;4992374;28;19975;-70
2022/02/01 10:19:12;;;;;;;15.18;3.20;;;;;;;4.32;97.01;101149.03;4992932;28;20065;-70
2022/02/01 10:21:59;;;;;;;11.07;2.22;;;;;;;4.41;97.03;101140.59;4993660;28;20081;-70
2022/02/01 10:24:43;;;;;;;8.75;2.90;;;;;;;4.41;97.13;101135.34;4993509;28;20053;-70
2022/02/01 10:27:30;;;;;;;10.57;2.28;;;;;;;4.52;97.14;101119.75;4978551;28;20097;-69
2022/02/01 10:30:19;;;;;;;10.65;2.85;;;;;;;4.53;96.76;101143.44;4993521;28;20057;-70
2022/02/01 10:35:57;;;;;;;;;;;;;;;4.61;94.70;101119.22;5018947;22;20074;-71
2022/02/01 10:38:41;;;;;;;7.00;2.50;;;;;;;4.66;94.99;101120.69;4993312;28;20412;-71
2022/02/01 10:41:25;;;;;;;7.28;2.72;;;;;;;4.63;94.31;101106.78;4992484;28;20545;-72
2022/02/01 10:44:09;;;;;;;8.80;2.65;;;;;;;4.65;93.10;101089.06;4993694;28;20116;-70
2022/02/01 10:46:54;;;;;;;11.35;2.70;;;;;;;4.73;92.66;101098.28;4992285;28;20129;-72
2022/02/01 10:49:38;;;;;;;7.00;2.83;;;;;;;4.77;92.40;101078.66;4993036;28;20510;-70
2022/02/01 10:52:22;;;;;;;10.82;3.83;;;;;;;4.77;92.95;101061.97;4992882;28;20129;-69
2022/02/01 10:55:07;;;;;;;8.73;2.45;;;;;;;4.77;90.21;101056.69;4993180;28;20057;-72
2022/02/01 10:57:52;;;;;;;14.48;3.53;;;;;;;4.75;90.83;101061.19;4991934;28;20065;-72
2022/02/01 11:00:35;;;;;;;7.78;2.35;;;;;;;4.83;91.45;101057.19;4993225;28;20065;-72
2022/02/01 11:03:20;;;;;;;;;;;;;;;4.82;92.04;101046.69;4992495;28;20073;-69
2022/02/01 11:06:04;;;;;;;7.60;2.08;;;;;;;4.78;93.34;101021.41;4991926;28;19921;-70
2022/02/01 11:08:48;;;;;;;12.75;3.25;;;;;;;4.76;95.98;101012.72;4978102;28;20058;-70
2022/02/01 11:11:31;;;;;;;8.27;2.30;;;;;;;4.78;93.52;100998.47;4977945;28;20411;-69
2022/02/01 11:14:20;;;;;;;11.10;3.05;;;;;;;4.90;92.57;100997.72;4993461;28;20097;-71
2022/02/01 11:17:06;;;;;;;7.05;2.90;;;;;;;4.86;90.20;101003.31;4992774;28;20085;-72
2022/02/01 11:19:54;;;;;;;10.70;3.13;;;;;;;4.90;90.03;100988.97;4991844;28;20069;-72
2022/02/01 11:22:41;;;;;;;8.45;2.67;;;;;;;4.98;89.98;100972.56;4992667;28;20169;-72
2022/02/01 11:25:28;;;;;;;13.70;2.70;;;;;;;4.98;89.36;100972.56;4991862;28;20057;-72
2022/02/01 11:28:46;;;;;;;9.57;2.63;;;;;;;5.06;89.10;100959.75;4991652;28;20134;-71
2022/02/01 11:31:31;;;;;;;7.95;2.22;;;;;;;5.02;87.47;100975.88;4994025;28;20089;-70
2022/02/01 11:34:38;;;;;;;9.05;2.22;;;;;;;5.02;86.80;100958.22;4996239;28;20057;-71
2022/02/01 11:37:25;;;;;;;5.53;2.22;;;;;;;5.01;87.53;100953.88;4993926;28;20133;-72
2022/02/01 11:40:13;;;;;;;10.20;2.55;;;;;;;5.08;88.49;100942.00;4981753;28;20509;-71
2022/02/01 11:43:00;;;;;;;6.88;2.13;;;;;;;5.06;88.34;100941.25;4995259;28;20170;-72
2022/02/01 11:46:06;;;;;;;9.38;3.22;;;;;;;5.01;88.15;100932.75;4995194;28;20403;-71
2022/02/01 11:48:51;;;;;;;10.82;2.90;;;;;;;5.06;88.42;100925.41;4994878;28;20053;-72
2022/02/01 11:51:35;;;;;;;6.55;2.88;;;;;;;4.97;89.16;100913.69;4995064;28;20128;-72
2022/02/01 11:54:24;;;;;;;8.00;2.55;;;;;;;4.97;89.60;100911.06;4995817;28;20080;-72
2022/02/01 11:57:29;;;;;;;10.18;2.92;;;;;;;4.96;89.60;100912.84;4995002;28;20045;-72
2022/02/01 12:00:18;;;;;;;10.65;3.60;;;;;;;4.94;90.50;100907.63;4995694;28;20194;-72
2022/02/01 12:03:02;;;;;;;10.05;2.70;;;;;;;4.99;90.54;100913.50;4995938;28;20424;-72
2022/02/01 12:05:57;;;;;;;8.15;2.75;;;;;;;4.95;92.21;100882.91;4994769;28;20053;-72
2022/02/01 12:08:43;;;;;;;10.82;2.38;;;;;;;4.91;92.74;100874.44;4995482;28;20071;-72
2022/02/01 12:11:27;;;;;;;6.97;2.60;;;;;;;4.80;93.84;100853.09;4995703;28;20160;-72
2022/02/01 12:14:12;;;;;;;8.32;2.70;;;;;;;4.84;93.35;100859.88;4994902;28;20081;-70
2022/02/01 12:16:57;;;;;;;12.63;2.80;;;;;;;4.89;93.33;100856.00;4980712;28;20553;-70
2022/02/01 12:19:52;;;;;;;11.10;3.58;;;;;;;4.83;93.55;100837.91;4994563;28;20414;-71
2022/02/01 12:22:40;;;;;;;7.35;2.70;;;;;;;4.75;95.89;100834.03;4995545;28;20042;-71
2022/02/01 12:25:25;;;;;;;7.13;2.47;;;;;;;4.70;97.21;100823.75;4995279;28;20561;-72
2022/02/01 12:28:21;;;;;;;10.85;2.53;;;;;;;4.70;99.01;100817.63;4995456;28;20057;-68
2022/02/01 12:31:11;;;;;;;8.13;2.45;;;;;;;4.71;99.57;100809.63;4995023;28;20553;-70
2022/02/01 12:33:58;;;;;;;8.18;2.72;;;;;;;4.68;100.00;100808.97;4994993;28;20049;-72
2022/02/01 12:36:48;;;;;;;9.05;2.45;;;;;;;4.70;100.00;100793.88;4993950;28;20056;-72
2022/02/01 12:39:35;;;;;;;6.38;2.20;;;;;;;4.70;100.00;100812.34;4994204;28;20045;-72
2022/02/01 12:42:30;;;;;;;5.85;2.05;;;;;;;4.68;100.00;100798.41;4994877;28;20041;-71
2022/02/01 12:48:18;;;;;;;5.45;2.20;;;;;;;4.71;100.00;100769.16;4994127;28;20068;-71
2022/02/01 12:51:05;;;;;;;5.03;1.65;;;;;;;4.70;100.00;100770.09;4993748;28;20069;-72
2022/02/01 12:53:50;;;;;;;9.27;2.22;;;;;;;4.62;100.00;100762.66;4993700;28;20458;-71
2022/02/01 12:56:34;;;;;;;4.63;1.80;;;;;;;4.33;100.00;100750.41;4993602;28;20162;-72
2022/02/01 12:59:21;;;;;;;7.47;1.90;;;;;;;4.11;100.00;100744.72;4994673;28;20053;-71
2022/02/01 13:02:07;;;;;;;5.30;2.00;;;;;;;3.85;100.00;100758.59;4994581;28;20489;-71
2022/02/01 13:04:53;;;;;;;6.13;2.58;;;;;;;3.75;100.00;100748.69;4993717;28;20505;-72
2022/02/01 13:07:57;;;;;;;5.10;2.03;;;;;;;3.67;100.00;100746.50;4993641;28;20454;-72
2022/02/01 13:16:42;;;;;;;13.63;2.95;;;;;;;3.74;100.00;100741.72;4994456;28;20057;-69
2022/02/01 13:22:32;;;;;;;11.40;2.70;;;;;;;3.35;100.00;100723.78;4994373;28;20606;-69
2022/02/01 13:25:17;;;;;;;5.95;2.05;;;;;;;3.34;100.00;100723.91;4993346;28;20053;-69
2022/02/01 13:28:07;;;;;;;7.65;2.92;;;;;;;3.11;100.00;100722.56;4994231;28;20049;-68
2022/02/01 13:30:51;;;;;;;9.93;3.20;;;;;;;3.20;100.00;100716.78;4993397;28;20045;-68
2022/02/01 13:33:44;;;;;;;20.77;4.00;;;;;;;3.02;100.00;100706.44;4994519;28;20046;-69
2022/02/01 13:36:29;;;;;;;17.73;6.47;;;;;;;2.85;100.00;100709.16;4993863;28;20054;-70
2022/02/01 13:39:35;;;;;;;4.57;1.65;;;;;;;2.75;100.00;100700.06;4994158;28;20052;-70
2022/02/01 13:42:28;;;;;;;0.10;0.10;;;;;;;2.83;100.00;100695.22;4992896;28;20116;-69
2022/02/01 13:45:13;;;;;;;0.20;0.20;;;;;;;2.85;100.00;100691.56;4994076;28;20057;-67
2022/02/01 13:47:57;;;;;;;0.20;0.20;;;;;;;2.77;100.00;100690.28;4992827;28;20053;-68
2022/02/01 13:50:43;;;;;;;0.10;0.10;;;;;;;2.73;100.00;100672.97;4992980;28;20126;-70
2022/02/01 13:53:27;;;;;;;0.10;0.10;;;;;;;2.75;100.00;100668.47;4978595;28;20097;-69
2022/02/01 13:56:10;;;;;;;;;;;;;;;2.75;100.00;100660.59;4994228;28;20064;-68
2022/02/01 13:59:08;;;;;;;0.50;0.38;;;;;;;2.73;100.00;100659.81;4993901;28;19944;-70
2022/02/01 14:02:07;;;;;;;0.10;0.10;;;;;;;2.76;100.00;100662.28;4992647;28;20049;-71
2022/02/01 14:05:02;;;;;;;0.10;0.10;;;;;;;2.70;100.00;100652.06;4993458;28;20053;-68
2022/02/01 14:11:33;;;;;;;0.20;0.20;;;;;;;2.63;100.00;100648.13;4992791;28;20049;-69
2022/02/01 14:23:24;;;;;;;0.10;0.10;;;;;;;2.74;100.00;100640.47;4993547;28;20053;-68
2022/02/01 14:26:01;;;;;;;0.90;0.90;;;;;;;2.70;100.00;100642.41;4993588;28;20053;-69
2022/02/01 14:28:50;;;;;;;0.10;0.10;;;;;;;2.75;100.00;100634.25;4992280;28;20409;-69
2022/02/01 14:34:39;;;;;;;4.03;0.80;;;;;;;2.79;100.00;100643.66;4992511;28;20084;-70
2022/02/01 14:37:41;;;;;;;0.10;0.10;;;;;;;2.81;100.00;100631.25;4993543;28;20088;-69
2022/02/01 14:46:21;;;;;;;0.10;0.10;;;;;;;2.85;100.00;100619.63;4993474;28;20069;-69
2022/02/01 14:49:05;;;;;;;0.10;0.10;;;;;;;2.85;100.00;100615.19;4993105;28;20065;-70